createdAt,value
2022-08-17T00:04:19.416Z,100854.72
2022-08-17T00:09:23.745Z,100857.34
2022-08-17T00:14:26.550Z,100857.25
2022-08-17T00:19:29.582Z,100856.25
2022-08-17T00:24:33.749Z,100851.69
2022-08-17T00:29:36.561Z,100851.56
2022-08-17T00:34:39.619Z,100856.78
2022-08-17T00:39:43.830Z,100858.44
2022-08-17T00:44:47.317Z,100855.69
2022-08-17T00:49:50.162Z,100855.66
2022-08-17T00:54:56.696Z,100853.81
2022-08-17T01:00:03.790Z,100852.84
2022-08-17T01:05:08.597Z,100871.47
2022-08-17T01:10:59.084Z,100863.34
2022-08-17T01:15:39.925Z,100878.41
2022-08-17T01:20:50.442Z,100876.53
2022-08-17T01:25:57.185Z,100885.38
2022-08-17T01:31:02.775Z,100879.88
2022-08-17T01:36:07.113Z,100878.00
2022-08-17T01:41:15.582Z,100881.53
2022-08-17T01:46:23.615Z,100884.06
2022-08-17T01:51:29.342Z,100881.28
2022-08-17T01:56:35.742Z,100894.56
2022-08-17T02:01:39.015Z,100884.69
2022-08-17T02:06:52.568Z,100886.44
2022-08-17T02:12:37.094Z,100876.59
2022-08-17T02:17:23.738Z,100879.16
2022-08-17T02:22:26.660Z,100878.22
2022-08-17T02:27:31.538Z,100886.16
2022-08-17T02:32:34.495Z,100884.28
2022-08-17T02:37:37.765Z,100881.53
2022-08-17T02:42:44.022Z,100883.16
2022-08-17T02:47:47.831Z,100878.53
2022-08-17T02:53:05.917Z,100884.59
2022-08-17T02:58:12.191Z,100880.06
2022-08-17T03:03:18.836Z,100883.59
2022-08-17T03:08:23.360Z,100878.22
2022-08-17T03:13:27.806Z,100877.31
2022-08-17T03:18:30.637Z,100873.72
2022-08-17T03:23:33.954Z,100880.72
2022-08-17T03:28:39.096Z,100880.66
2022-08-17T03:33:41.902Z,100877.97
2022-08-17T03:38:45.111Z,100872.56
2022-08-17T03:43:49.329Z,100877.84
2022-08-17T03:49:09.726Z,100884.03
2022-08-17T03:54:30.984Z,100878.63
2022-08-17T03:59:36.097Z,100886.63
2022-08-17T04:04:40.527Z,100888.28
2022-08-17T04:09:44.206Z,100898.00
2022-08-17T04:14:53.540Z,100898.94
2022-08-17T04:19:58.051Z,100893.66
2022-08-17T04:25:01.275Z,100892.84
2022-08-17T04:30:07.990Z,100890.97
2022-08-17T04:35:11.321Z,100896.31
2022-08-17T04:40:28.317Z,100900.81
2022-08-17T04:45:32.830Z,100908.13
2022-08-17T04:50:36.194Z,100913.56
2022-08-17T04:55:39.043Z,100914.59
2022-08-17T05:00:43.451Z,100923.66
2022-08-17T05:05:49.412Z,100922.94
2022-08-17T05:10:52.402Z,100919.63
2022-08-17T05:15:58.697Z,100926.91
2022-08-17T05:21:01.655Z,100940.44
2022-08-17T05:26:05.223Z,100945.03
2022-08-17T05:31:12.272Z,100944.47
2022-08-17T05:36:41.862Z,100950.00
2022-08-17T05:41:39.130Z,100949.44
2022-08-17T05:46:49.185Z,100934.59
2022-08-17T05:52:13.691Z,100949.09
2022-08-17T05:57:43.554Z,100943.94
2022-08-17T06:03:19.714Z,100947.88
2022-08-17T06:08:33.258Z,100950.88
2022-08-17T06:13:50.883Z,100961.88
2022-08-17T06:19:01.295Z,100956.88
2022-08-17T06:24:08.464Z,100959.81
2022-08-17T06:29:21.048Z,100970.81
2022-08-17T06:34:25.390Z,100970.22
2022-08-17T06:39:36.311Z,100966.00
2022-08-17T06:44:51.105Z,100975.19
2022-08-17T06:50:03.742Z,100974.41
2022-08-17T06:55:09.446Z,100972.72
2022-08-17T07:00:24.221Z,100979.03
2022-08-17T07:05:34.737Z,100984.41
2022-08-17T07:10:42.602Z,100975.41
2022-08-17T07:15:47.153Z,100989.72
2022-08-17T07:20:55.940Z,100983.31
2022-08-17T07:26:05.518Z,100980.47
2022-08-17T07:31:13.289Z,100978.53
2022-08-17T07:36:29.952Z,100980.13
2022-08-17T07:41:57.335Z,100987.00
2022-08-17T07:47:19.707Z,100988.56
2022-08-17T07:52:51.440Z,100995.63
2022-08-17T07:57:57.358Z,100991.03
2022-08-17T08:03:13.416Z,101000.59
2022-08-17T08:08:26.924Z,101002.16
2022-08-17T08:13:32.222Z,101000.19
2022-08-17T08:18:53.387Z,100995.31
2022-08-17T08:24:10.887Z,100993.19
2022-08-17T08:29:23.660Z,101005.50
2022-08-17T08:34:58.606Z,100990.16
2022-08-17T08:40:03.835Z,100991.09
2022-08-17T08:45:14.721Z,100992.84
2022-08-17T08:50:38.265Z,101011.16
2022-08-17T08:55:53.024Z,100995.72
2022-08-17T09:00:59.262Z,100997.53
2022-08-17T09:06:33.408Z,101000.31
2022-08-17T09:12:02.081Z,101004.84
2022-08-17T09:17:12.661Z,100992.06
2022-08-17T09:22:31.410Z,100993.28
2022-08-17T09:27:47.658Z,100998.44
2022-08-17T09:32:55.403Z,100985.53
2022-08-17T09:38:06.437Z,100980.97
2022-08-17T09:43:18.710Z,100987.13
2022-08-17T09:48:28.551Z,100978.94
2022-08-17T09:53:32.428Z,100984.97
2022-08-17T09:58:51.026Z,100979.63
2022-08-17T10:04:20.330Z,100984.41
2022-08-17T10:09:45.607Z,100989.81
2022-08-17T10:15:08.197Z,100991.97
2022-08-17T10:20:16.523Z,100987.59
2022-08-17T10:25:54.261Z,100973.91
2022-08-17T10:31:34.131Z,100975.63
2022-08-17T10:36:39.079Z,100969.34
2022-08-17T10:41:46.701Z,100980.97
2022-08-17T10:47:07.119Z,100974.25
2022-08-17T10:52:43.056Z,100971.69
2022-08-17T10:57:47.132Z,100966.53
2022-08-17T11:02:53.523Z,100964.47
2022-08-17T11:08:15.508Z,100958.41
2022-08-17T11:13:33.948Z,100966.41
2022-08-17T11:18:57.749Z,100964.84
2022-08-17T11:24:14.640Z,100965.53
2022-08-17T11:29:26.611Z,100966.69
2022-08-17T11:34:34.602Z,100963.16
2022-08-17T11:39:55.803Z,100953.50
2022-08-17T11:45:04.298Z,100954.00
2022-08-17T11:50:43.971Z,100955.19
2022-08-17T11:56:04.637Z,100951.72
2022-08-17T12:01:09.651Z,100955.81
2022-08-17T12:06:32.081Z,100950.53
2022-08-17T12:11:58.789Z,100948.84
2022-08-17T12:17:09.156Z,100933.06
2022-08-17T12:22:18.881Z,100927.84
2022-08-17T12:27:47.644Z,100929.50
2022-08-17T12:32:51.047Z,100926.66
2022-08-17T12:37:57.593Z,100934.97
2022-08-17T12:43:03.192Z,100939.91
2022-08-17T12:48:09.325Z,100932.94
2022-08-17T12:53:15.904Z,100924.94
2022-08-17T12:58:22.153Z,100928.16
2022-08-17T13:03:36.399Z,100924.13
2022-08-17T13:08:42.862Z,100921.81
2022-08-17T13:13:49.173Z,100912.84
2022-08-17T13:18:55.519Z,100908.28
2022-08-17T13:24:04.478Z,100913.78
2022-08-17T13:29:09.604Z,100911.31
2022-08-17T13:34:31.850Z,100900.41
2022-08-17T13:39:42.730Z,100895.06
2022-08-17T13:44:45.677Z,100889.56
2022-08-17T13:49:49.647Z,100893.81
2022-08-17T13:54:55.661Z,100894.81
2022-08-17T14:00:10.978Z,100891.00
2022-08-17T14:05:13.825Z,100892.06
2022-08-17T14:10:19.929Z,100902.34
2022-08-17T14:15:55.102Z,100896.53
2022-08-17T14:20:49.613Z,100896.03
2022-08-17T14:25:53.833Z,100893.09
2022-08-17T14:30:56.641Z,100895.28
2022-08-17T14:36:00.126Z,100878.25
2022-08-17T14:41:05.410Z,100871.75
2022-08-17T14:46:08.274Z,100869.03
2022-08-17T14:51:11.950Z,100867.97
2022-08-17T14:56:16.185Z,100860.00
2022-08-17T15:01:21.679Z,100863.38
2022-08-17T15:06:25.034Z,100866.06
2022-08-17T15:11:29.379Z,100861.41
2022-08-17T15:16:35.978Z,100860.06
2022-08-17T15:21:38.802Z,100856.47
2022-08-17T15:26:43.502Z,100865.72
2022-08-17T15:31:46.411Z,100862.13
2022-08-17T15:36:49.750Z,100862.13
2022-08-17T15:41:58.354Z,100860.50
2022-08-17T15:47:01.697Z,100853.50
2022-08-17T15:52:16.756Z,100860.31
2022-08-17T15:57:21.363Z,100858.47
2022-08-17T16:03:46.253Z,100851.03
2022-08-17T16:07:52.078Z,100859.84
2022-08-17T16:12:58.193Z,100859.03
2022-08-17T16:18:01.064Z,100852.59
2022-08-17T16:23:04.162Z,100849.91
2022-08-17T16:28:08.871Z,100854.69
2022-08-17T16:33:12.428Z,100845.94
2022-08-17T16:38:15.226Z,100856.31
2022-08-17T16:43:20.178Z,100845.94
2022-08-17T16:48:23.363Z,100857.19
2022-08-17T16:53:26.738Z,100855.25
2022-08-17T16:58:30.972Z,100853.94
2022-08-17T17:03:34.061Z,100855.66
2022-08-17T17:08:44.609Z,100864.09
2022-08-17T17:13:54.753Z,100860.91
2022-08-17T17:19:13.873Z,100874.53
2022-08-17T17:24:22.823Z,100880.34
2022-08-17T17:29:48.822Z,100871.88
2022-08-17T17:34:58.745Z,100879.31
2022-08-17T17:40:06.724Z,100885.94
2022-08-17T17:45:18.154Z,100900.81
2022-08-17T17:50:27.571Z,100901.25
2022-08-17T17:55:40.544Z,100887.09
2022-08-17T18:00:53.187Z,100896.25
2022-08-17T18:06:14.899Z,100894.63
2022-08-17T18:11:35.240Z,100893.94
2022-08-17T18:16:42.638Z,100898.63
2022-08-17T18:21:52.138Z,100888.06
2022-08-17T18:26:57.845Z,100890.00
2022-08-17T18:32:33.554Z,100893.81
2022-08-17T18:37:40.701Z,100901.09
2022-08-17T18:42:46.322Z,100900.28
2022-08-17T18:47:56.517Z,100904.72
2022-08-17T18:53:26.691Z,100902.25
2022-08-17T18:58:33.048Z,100913.22
2022-08-17T19:03:44.212Z,100919.56
2022-08-17T19:08:47.072Z,100924.13
2022-08-17T19:13:56.826Z,100927.72
2022-08-17T19:19:10.256Z,100928.69
2022-08-17T19:24:19.399Z,100929.63
2022-08-17T19:29:27.923Z,100934.13
2022-08-17T19:34:35.637Z,100937.91
2022-08-17T19:39:48.058Z,100929.03
2022-08-17T19:45:02.843Z,100926.44
2022-08-17T19:50:13.565Z,100930.06
2022-08-17T19:55:24.419Z,100917.50
2022-08-17T20:00:27.513Z,100923.81
2022-08-17T20:06:01.328Z,100910.34
2022-08-17T20:11:03.743Z,100931.09
2022-08-17T20:16:07.714Z,100924.88
2022-08-17T20:21:19.730Z,100919.53
2022-08-17T20:26:28.713Z,100927.66
2022-08-17T20:31:47.200Z,100931.31
2022-08-17T20:37:03.112Z,100920.59
2022-08-17T20:42:12.527Z,100934.94
2022-08-17T20:47:26.977Z,100922.44
2022-08-17T20:52:48.920Z,100932.31
2022-08-17T20:57:52.082Z,100934.13
2022-08-17T21:03:50.943Z,100921.59
2022-08-17T21:08:59.329Z,100918.03
2022-08-17T21:14:10.169Z,100918.97
2022-08-17T21:19:30.924Z,100922.59
2022-08-17T21:24:49.566Z,100925.28
2022-08-17T21:30:12.251Z,100926.19
2022-08-17T21:35:31.031Z,100925.28
2022-08-17T21:40:35.457Z,100919.91
2022-08-17T21:45:42.945Z,100926.16
2022-08-17T21:50:57.690Z,100926.19
2022-08-17T21:56:02.199Z,100936.03
2022-08-17T22:01:23.469Z,100935.16
2022-08-17T22:06:29.695Z,100928.91
2022-08-17T22:11:49.434Z,100926.19
2022-08-17T22:17:07.749Z,100924.41
2022-08-17T22:22:22.492Z,100915.44
2022-08-17T22:27:49.865Z,100921.66
2022-08-17T22:32:52.791Z,100920.72
2022-08-17T22:37:55.875Z,100918.03
2022-08-17T22:43:03.036Z,100913.56
2022-08-17T22:48:06.325Z,100910.88
2022-08-17T22:53:34.344Z,100899.25
2022-08-17T22:59:02.401Z,100901.91
2022-08-17T23:04:07.875Z,100897.47
2022-08-17T23:09:10.789Z,100899.22
2022-08-17T23:14:16.314Z,100900.09
2022-08-17T23:19:22.183Z,100909.03
2022-08-17T23:24:28.800Z,100915.25
2022-08-17T23:29:33.041Z,100917.88
2022-08-17T23:34:38.643Z,100916.91
2022-08-17T23:39:41.656Z,100907.94
2022-08-17T23:44:45.914Z,100906.97
2022-08-17T23:49:48.720Z,100911.44
2022-08-17T23:54:57.521Z,100907.78
